• Join FlightAware (Why Join?)
  • Login
  • US Flag 
06:48AM EST


 

Airport Tracker/Info


-or-


 

Live Flight TrackerFlight Track Log ✈ ASQ6118 ✈ 04-May-2012 ✈ KIAD - CYOW

Flight Track Log - Related Links

Times and Time Zones

All times are in EDT time to prevent confusion due to time zone crossing. See the ASQ6118 flight status page for this flight to view local times or setup timezone preferences in your user account.

Time Position Orientation Groundspeed Altitude Reporting Facility
EDT Latitude Longitude Course Direction KTS MPH feet Rate Location/Type
01:35PM 38.9833 -77.4333 349° North 176 203 2,200  Level Potomac TRACON
01:36PM 39.0500 -77.4500 349° North 237 273 3,900 1,980 Climbing Potomac TRACON
01:37PM 39.1167 -77.4667 351° North 264 304 6,200 1,500 Climbing Potomac TRACON
01:38PM 39.2000 -77.4833 339° North 265 305 7,000 1,140 Climbing Potomac TRACON
01:39PM 39.2667 -77.5167 303° West 272 313 8,600 1,740 Climbing Potomac TRACON
01:40PM 39.3000 -77.5833 322° Northwest 268 308 10,400 1,260 Climbing Potomac TRACON
01:41PM 39.4261 -77.7114 323° Northwest 325 374 12,200 1,080 Climbing Washington Center
01:42PM 39.5042 -77.7864 324° Northwest 343 395 13,700 1,560 Climbing Washington Center
01:43PM 39.5839 -77.8614 325° Northwest 343 395 15,400 1,500 Climbing Washington Center
01:45PM 39.7250 -77.9919 324° Northwest 354 407 17,700 1,200 Climbing Cleveland Center
01:46PM 39.8058 -78.0697 316° Northwest 365 420 18,600 900 Climbing Cleveland Center
01:47PM 39.8808 -78.1644 310° West 370 426 19,500 960 Climbing Cleveland Center
01:48PM 39.9497 -78.2703 334° Northwest 375 432 20,600 1,020 Climbing Cleveland Center
01:49PM 40.0450 -78.3322 353° North 375 432 21,600 900 Climbing Cleveland Center
01:50PM 40.1536 -78.3503 352° North 375 432 22,500 900 Climbing Cleveland Center
01:51PM 40.2689 -78.3708 353° North 386 444 23,500 720 Climbing Cleveland Center
01:52PM 40.3817 -78.3889 353° North 397 457 24,000 240 Climbing Cleveland Center
01:53PM 40.4989 -78.4069 North 414 476 24,000 420 Level Cleveland Center
01:54PM 40.6217 -78.3975 43° Northeast 426 490 24,900 1,020 Climbing Cleveland Center
01:56PM 40.7622 -78.2214 48° Northeast 411 473 26,900 1,140 Climbing New York Center
01:57PM 40.8403 -78.1064 46° Northeast 412 474 28,200 1,380 Climbing New York Center
01:58PM 40.9292 -77.9839 30° Northeast 412 474 29,700 1,380 Climbing New York Center
01:59PM 41.0256 -77.9089 30° Northeast 401 461 31,000 1,260 Climbing New York Center
02:00PM 41.1194 -77.8361 30° Northeast 401 461 32,200 1,260 Climbing New York Center
02:01PM 41.2156 -77.7633 30° Northeast 395 455 33,500 1,140 Climbing New York Center
02:02PM 41.3072 -77.6928 31° Northeast 390 449 34,600 720 Climbing New York Center
02:03PM 41.4031 -77.6167 29° Northeast 390 449 35,000 180 Climbing New York Center
02:04PM 41.4947 -77.5486 31° Northeast 402 463 35,000  Level New York Center
02:05PM 41.5972 -77.4672 30° Northeast 423 487 35,000  Level New York Center
02:08PM 41.9333 -77.2047 31° Northeast 440 506 35,000  Level Boston Center
02:09PM 42.0392 -77.1178 30° Northeast 440 506 35,000  Level Boston Center
02:10PM 42.1575 -77.0256 31° Northeast 440 506 35,000  Level Boston Center
02:11PM 42.2653 -76.9381 31° Northeast 440 506 35,000  Level Boston Center
02:12PM 42.3750 -76.8503 30° Northeast 445 512 35,000  Level Boston Center
02:13PM 42.4869 -76.7625 32° Northeast 451 519 35,000  Level Boston Center
02:14PM 42.5947 -76.6714 30° Northeast 451 519 35,000  Level Boston Center
02:15PM 42.7064 -76.5828 30° Northeast 464 534 35,000  Level Boston Center
02:16PM 42.8050 -76.5044 32° Northeast 459 528 35,000  Level Boston Center
02:17PM 42.9147 -76.4125 31° Northeast 459 528 35,000  Level Boston Center
02:18PM 43.0264 -76.3203 30° Northeast 464 534 35,000  Level Boston Center
02:19PM 43.1378 -76.2306 13° North 464 534 35,000 -300 Level Boston Center
02:20PM 43.2578 -76.1922 North 442 509 34,400 -1,320 Descending Boston Center
02:21PM 43.3794 -76.1714 North 442 509 32,400 -2,040 Descending Boston Center
02:22PM 43.5011 -76.1500 North 437 503 30,400 -1,920 Descending Boston Center
02:23PM 43.6228 -76.1261 North 437 503 28,600 -1,200 Descending Boston Center
02:24PM 43.7444 -76.1047 North 437 503 28,000 -300 Descending Boston Center
02:25PM 43.8681 -76.0806 12° North 437 503 28,000  Level Boston Center
02:26PM 43.9881 -76.0444 25° Northeast 437 503 28,000 -120 Level Boston Center
02:27PM 44.1008 -75.9703 25° Northeast 435 501 27,800 -1,320 Descending Boston Center
02:28PM 44.2114 -75.8986 25° Northeast 435 501 25,400 60 Descending Boston Center
02:29PM 44.3197 -75.8267 25° Northeast 435 501 28,000 -2,640 Climbing Boston Center
02:30PM 44.4283 -75.7544 24° Northeast 429 494 20,200 -5,220 Descending Boston Center
02:31PM 44.5364 -75.6875 26° Northeast 424 488 17,600 -2,640 Descending Boston Center
02:32PM 44.6489 -75.6119 33° Northeast 417 480 15,000 -2,760 Descending Boston Center
02:33PM 44.7167 -75.5500 23° Northeast 390 449 12,400 -2,100 Descending Montreal Center
02:34PM 44.8000 -75.5000 23° Northeast 350 403 11,100 -1,440 Descending Montreal Center
02:35PM 44.8833 -75.4500 19° North 300 345 9,600 -1,680 Descending Montreal Center
02:36PM 44.9500 -75.4167 360° North 270 311 7,800 -1,680 Descending Montreal Center
02:37PM 45.0167 -75.4167 360° North 260 299 6,300 -1,800 Descending Montreal Center
02:38PM 45.0833 -75.4167 341° North 240 276 4,300 -1,680 Descending Montreal Center
02:39PM 45.1500 -75.4500 347° North 230 265 3,000 -660 Descending Montreal Center
02:40PM 45.2000 -75.4667 295° West 190 219 3,000 -180 Level Montreal Center
02:41PM 45.2167 -75.5167 305° West 180 207 2,700 -660 Descending Montreal Center
02:42PM 45.2500 -75.5833 305° West 170 196 1,700 -840 Descending Montreal Center
02:43PM 45.2667 -75.6167 313° West 130 150 1,100 -600 Descending Montreal Center
02:44PM 45.3000 -75.6667 313° West 120 138 500 -600 Descending Montreal Center